sensor_id;sensor_type;location;lat;lon;timestamp;pressure;altitude;pressure_sealevel;temperature;humidity
57885;BME280;43703;51.060;-0.086;2022-09-09T00:00:20;98867.34;;;13.58;78.54
57885;BME280;43703;51.060;-0.086;2022-09-09T00:02:49;98866.94;;;12.59;79.04
57885;BME280;43703;51.060;-0.086;2022-09-09T00:05:17;98865.77;;;13.47;76.92
57885;BME280;43703;51.060;-0.086;2022-09-09T00:07:41;98868.64;;;12.89;78.32
57885;BME280;43703;51.060;-0.086;2022-09-09T00:10:18;98864.99;;;12.86;78.14
57885;BME280;43703;51.060;-0.086;2022-09-09T00:12:33;98868.56;;;13.83;75.63
57885;BME280;43703;51.060;-0.086;2022-09-09T00:14:56;98870.06;;;13.77;75.28
57885;BME280;43703;51.060;-0.086;2022-09-09T00:17:31;98868.37;;;13.26;76.38
57885;BME280;43703;51.060;-0.086;2022-09-09T00:19:49;98871.41;;;13.83;74.46
57885;BME280;43703;51.060;-0.086;2022-09-09T00:22:16;98870.98;;;13.81;74.26
57885;BME280;43703;51.060;-0.086;2022-09-09T00:24:41;98874.06;;;13.78;74.32
57885;BME280;43703;51.060;-0.086;2022-09-09T00:27:07;98870.70;;;13.75;74.16
57885;BME280;43703;51.060;-0.086;2022-09-09T00:29:34;98867.77;;;14.32;72.56
57885;BME280;43703;51.060;-0.086;2022-09-09T00:31:55;98865.73;;;14.32;71.62
57885;BME280;43703;51.060;-0.086;2022-09-09T00:34:23;98866.58;;;14.88;70.74
57885;BME280;43703;51.060;-0.086;2022-09-09T00:36:49;98865.80;;;15.41;70.20
57885;BME280;43703;51.060;-0.086;2022-09-09T00:39:20;98858.40;;;14.04;72.04
57885;BME280;43703;51.060;-0.086;2022-09-09T00:41:47;98859.26;;;15.07;71.00
57885;BME280;43703;51.060;-0.086;2022-09-09T00:44:11;98857.05;;;14.67;71.56
57885;BME280;43703;51.060;-0.086;2022-09-09T00:46:42;98853.15;;;14.44;71.76
57885;BME280;43703;51.060;-0.086;2022-09-09T00:49:03;98854.89;;;15.31;70.43
57885;BME280;43703;51.060;-0.086;2022-09-09T00:51:27;98852.48;;;13.31;73.83
57885;BME280;43703;51.060;-0.086;2022-09-09T00:53:57;98851.38;;;13.98;74.33
57885;BME280;43703;51.060;-0.086;2022-09-09T00:56:13;98845.82;;;14.17;72.63
57885;BME280;43703;51.060;-0.086;2022-09-09T00:58:38;98843.17;;;14.30;71.90
57885;BME280;43703;51.060;-0.086;2022-09-09T01:01:07;98842.98;;;14.47;71.50
57885;BME280;43703;51.060;-0.086;2022-09-09T01:03:34;98842.86;;;14.50;71.22
57885;BME280;43703;51.060;-0.086;2022-09-09T01:06:01;98845.32;;;14.80;71.35
57885;BME280;43703;51.060;-0.086;2022-09-09T01:08:35;98842.64;;;14.91;70.62
57885;BME280;43703;51.060;-0.086;2022-09-09T01:10:50;98846.60;;;15.37;69.81
57885;BME280;43703;51.060;-0.086;2022-09-09T01:13:19;98841.36;;;14.57;70.74
57885;BME280;43703;51.060;-0.086;2022-09-09T01:15:40;98837.29;;;14.37;70.97
57885;BME280;43703;51.060;-0.086;2022-09-09T01:18:06;98836.99;;;14.25;71.46
57885;BME280;43703;51.060;-0.086;2022-09-09T01:20:37;98834.73;;;15.13;70.48
57885;BME280;43703;51.060;-0.086;2022-09-09T01:23:10;98835.45;;;13.57;72.67
57885;BME280;43703;51.060;-0.086;2022-09-09T01:25:29;98834.92;;;14.72;71.32
57885;BME280;43703;51.060;-0.086;2022-09-09T01:30:16;98835.22;;;14.29;71.83
57885;BME280;43703;51.060;-0.086;2022-09-09T01:32:42;98836.64;;;15.01;70.50
57885;BME280;43703;51.060;-0.086;2022-09-09T01:49:40;98831.33;;;14.31;72.50
57885;BME280;43703;51.060;-0.086;2022-09-09T01:52:06;98830.47;;;14.43;72.15
57885;BME280;43703;51.060;-0.086;2022-09-09T01:54:32;98829.84;;;14.38;71.01
57885;BME280;43703;51.060;-0.086;2022-09-09T01:57:06;98829.70;;;14.86;70.64
57885;BME280;43703;51.060;-0.086;2022-09-09T01:59:32;98828.08;;;14.20;71.66
57885;BME280;43703;51.060;-0.086;2022-09-09T02:01:59;98831.12;;;14.73;71.99
57885;BME280;43703;51.060;-0.086;2022-09-09T02:04:27;98829.43;;;14.48;72.90
57885;BME280;43703;51.060;-0.086;2022-09-09T02:06:41;98823.47;;;13.75;73.15
57885;BME280;43703;51.060;-0.086;2022-09-09T02:09:11;98824.61;;;14.87;71.16
57885;BME280;43703;51.060;-0.086;2022-09-09T02:11:33;98825.47;;;15.21;70.12
57885;BME280;43703;51.060;-0.086;2022-09-09T02:14:01;98821.90;;;13.69;72.21
57885;BME280;43703;51.060;-0.086;2022-09-09T02:16:27;98823.47;;;14.00;72.26
57885;BME280;43703;51.060;-0.086;2022-09-09T02:18:52;98824.48;;;14.25;71.81
57885;BME280;43703;51.060;-0.086;2022-09-09T02:21:17;98825.03;;;14.42;70.97
57885;BME280;43703;51.060;-0.086;2022-09-09T02:23:42;98824.85;;;14.05;73.55
57885;BME280;43703;51.060;-0.086;2022-09-09T02:26:08;98822.62;;;13.94;72.56
57885;BME280;43703;51.060;-0.086;2022-09-09T02:28:35;98823.18;;;14.07;73.11
57885;BME280;43703;51.060;-0.086;2022-09-09T02:30:59;98821.90;;;13.79;74.19
57885;BME280;43703;51.060;-0.086;2022-09-09T02:33:28;98824.47;;;13.63;74.01
57885;BME280;43703;51.060;-0.086;2022-09-09T02:35:51;98822.57;;;14.31;72.46
57885;BME280;43703;51.060;-0.086;2022-09-09T02:38:17;98826.43;;;13.68;72.04
57885;BME280;43703;51.060;-0.086;2022-09-09T02:40:43;98827.50;;;13.63;73.51
57885;BME280;43703;51.060;-0.086;2022-09-09T02:43:08;98828.35;;;14.08;72.69
57885;BME280;43703;51.060;-0.086;2022-09-09T02:45:40;98829.56;;;13.68;73.03
57885;BME280;43703;51.060;-0.086;2022-09-09T02:48:05;98834.04;;;14.32;71.82
57885;BME280;43703;51.060;-0.086;2022-09-09T02:50:29;98837.88;;;13.93;71.61
57885;BME280;43703;51.060;-0.086;2022-09-09T02:53:02;98837.32;;;14.20;72.69
57885;BME280;43703;51.060;-0.086;2022-09-09T02:55:21;98843.08;;;13.59;73.71
57885;BME280;43703;51.060;-0.086;2022-09-09T02:57:45;98843.50;;;13.52;73.47
57885;BME280;43703;51.060;-0.086;2022-09-09T03:00:11;98844.73;;;13.29;73.87
57885;BME280;43703;51.060;-0.086;2022-09-09T03:02:35;98851.11;;;12.85;76.39
57885;BME280;43703;51.060;-0.086;2022-09-09T03:05:01;98849.70;;;13.42;74.90
57885;BME280;43703;51.060;-0.086;2022-09-09T03:07:27;98852.57;;;13.39;75.19
57885;BME280;43703;51.060;-0.086;2022-09-09T03:09:53;98856.00;;;13.84;73.30
57885;BME280;43703;51.060;-0.086;2022-09-09T03:12:18;98857.81;;;13.84;73.02
57885;BME280;43703;51.060;-0.086;2022-09-09T03:14:44;98860.96;;;12.59;77.18
57885;BME280;43703;51.060;-0.086;2022-09-09T03:17:10;98861.84;;;12.79;76.46
57885;BME280;43703;51.060;-0.086;2022-09-09T03:19:36;98863.02;;;13.54;74.36
57885;BME280;43703;51.060;-0.086;2022-09-09T03:22:02;98862.56;;;13.36;74.30
57885;BME280;43703;51.060;-0.086;2022-09-09T03:24:27;98861.33;;;13.31;74.85
57885;BME280;43703;51.060;-0.086;2022-09-09T03:26:54;98862.23;;;13.39;74.03
57885;BME280;43703;51.060;-0.086;2022-09-09T03:29:19;98861.86;;;14.18;72.21
57885;BME280;43703;51.060;-0.086;2022-09-09T03:31:45;98866.64;;;14.55;71.92
57885;BME280;43703;51.060;-0.086;2022-09-09T03:34:11;98870.62;;;13.89;73.84
57885;BME280;43703;51.060;-0.086;2022-09-09T03:36:37;98870.96;;;14.55;72.29
57885;BME280;43703;51.060;-0.086;2022-09-09T03:39:03;98870.45;;;13.89;71.95
57885;BME280;43703;51.060;-0.086;2022-09-09T03:41:29;98875.83;;;14.00;72.55
57885;BME280;43703;51.060;-0.086;2022-09-09T03:43:55;98877.69;;;14.18;71.86
57885;BME280;43703;51.060;-0.086;2022-09-09T03:46:22;98883.66;;;13.61;73.86
57885;BME280;43703;51.060;-0.086;2022-09-09T03:48:46;98884.08;;;13.45;74.69
57885;BME280;43703;51.060;-0.086;2022-09-09T03:51:12;98884.20;;;13.50;73.86
57885;BME280;43703;51.060;-0.086;2022-09-09T03:53:38;98884.52;;;13.98;72.97
57885;BME280;43703;51.060;-0.086;2022-09-09T03:56:05;98882.74;;;13.53;73.64
57885;BME280;43703;51.060;-0.086;2022-09-09T03:58:29;98883.16;;;13.16;74.06
57885;BME280;43703;51.060;-0.086;2022-09-09T04:00:57;98884.03;;;13.44;74.29
57885;BME280;43703;51.060;-0.086;2022-09-09T04:03:21;98888.42;;;12.96;75.30
57885;BME280;43703;51.060;-0.086;2022-09-09T04:05:48;98891.16;;;13.21;75.35
57885;BME280;43703;51.060;-0.086;2022-09-09T04:08:13;98893.66;;;12.90;75.87
57885;BME280;43703;51.060;-0.086;2022-09-09T04:10:38;98898.70;;;13.27;75.80
57885;BME280;43703;51.060;-0.086;2022-09-09T04:13:05;98899.29;;;13.25;74.45
57885;BME280;43703;51.060;-0.086;2022-09-09T04:15:31;98898.34;;;13.25;75.37
57885;BME280;43703;51.060;-0.086;2022-09-09T04:17:56;98903.62;;;12.43;78.63
57885;BME280;43703;51.060;-0.086;2022-09-09T04:20:23;98903.44;;;12.81;76.72
57885;BME280;43703;51.060;-0.086;2022-09-09T04:22:48;98908.19;;;13.30;75.87
57885;BME280;43703;51.060;-0.086;2022-09-09T04:25:14;98909.71;;;13.09;75.89
57885;BME280;43703;51.060;-0.086;2022-09-09T04:27:40;98911.32;;;13.24;76.80
57885;BME280;43703;51.060;-0.086;2022-09-09T04:30:06;98910.47;;;13.49;75.09
57885;BME280;43703;51.060;-0.086;2022-09-09T04:32:32;98909.77;;;12.96;75.06
57885;BME280;43703;51.060;-0.086;2022-09-09T04:34:57;98918.54;;;12.72;76.58
57885;BME280;43703;51.060;-0.086;2022-09-09T04:37:23;98914.92;;;12.88;76.80
57885;BME280;43703;51.060;-0.086;2022-09-09T04:39:49;98918.08;;;12.61;78.09
57885;BME280;43703;51.060;-0.086;2022-09-09T04:42:15;98916.10;;;13.58;75.98
57885;BME280;43703;51.060;-0.086;2022-09-09T04:44:41;98917.84;;;13.44;75.44
57885;BME280;43703;51.060;-0.086;2022-09-09T04:47:06;98921.61;;;12.99;76.43
57885;BME280;43703;51.060;-0.086;2022-09-09T04:49:32;98919.89;;;12.88;76.24
57885;BME280;43703;51.060;-0.086;2022-09-09T04:51:58;98925.95;;;12.85;75.52
57885;BME280;43703;51.060;-0.086;2022-09-09T04:54:24;98928.21;;;12.89;76.47
57885;BME280;43703;51.060;-0.086;2022-09-09T04:56:50;98928.66;;;12.76;77.09
57885;BME280;43703;51.060;-0.086;2022-09-09T04:59:15;98930.93;;;12.75;77.06
57885;BME280;43703;51.060;-0.086;2022-09-09T05:01:41;98933.89;;;12.17;78.68
57885;BME280;43703;51.060;-0.086;2022-09-09T05:04:07;98937.00;;;12.00;80.45
57885;BME280;43703;51.060;-0.086;2022-09-09T05:06:33;98935.71;;;12.40;78.39
57885;BME280;43703;51.060;-0.086;2022-09-09T05:08:58;98941.44;;;12.48;78.84
57885;BME280;43703;51.060;-0.086;2022-09-09T05:11:26;98939.71;;;11.59;81.00
57885;BME280;43703;51.060;-0.086;2022-09-09T05:13:50;98942.52;;;13.00;77.35
57885;BME280;43703;51.060;-0.086;2022-09-09T05:16:17;98943.50;;;13.26;77.36
57885;BME280;43703;51.060;-0.086;2022-09-09T05:18:42;98937.93;;;13.15;75.16
57885;BME280;43703;51.060;-0.086;2022-09-09T05:21:08;98939.84;;;12.61;77.22
57885;BME280;43703;51.060;-0.086;2022-09-09T05:23:34;98943.13;;;12.89;76.19
57885;BME280;43703;51.060;-0.086;2022-09-09T05:26:00;98946.60;;;12.93;76.80
57885;BME280;43703;51.060;-0.086;2022-09-09T05:28:26;98947.49;;;13.26;75.29
57885;BME280;43703;51.060;-0.086;2022-09-09T05:30:56;98951.88;;;12.70;77.35
57885;BME280;43703;51.060;-0.086;2022-09-09T05:33:16;98955.12;;;12.93;76.51
57885;BME280;43703;51.060;-0.086;2022-09-09T05:35:41;98960.06;;;12.07;77.99
57885;BME280;43703;51.060;-0.086;2022-09-09T05:38:07;98957.39;;;12.57;76.87
57885;BME280;43703;51.060;-0.086;2022-09-09T05:40:33;98960.63;;;12.48;78.79
57885;BME280;43703;51.060;-0.086;2022-09-09T05:43:00;98958.24;;;12.82;77.50
57885;BME280;43703;51.060;-0.086;2022-09-09T05:45:25;98958.09;;;13.76;75.18
57885;BME280;43703;51.060;-0.086;2022-09-09T05:47:52;98965.09;;;13.34;75.39
57885;BME280;43703;51.060;-0.086;2022-09-09T05:50:17;98968.94;;;12.59;76.08
57885;BME280;43703;51.060;-0.086;2022-09-09T05:52:42;98971.10;;;13.27;75.19
57885;BME280;43703;51.060;-0.086;2022-09-09T05:55:08;98973.09;;;14.58;72.54
57885;BME280;43703;51.060;-0.086;2022-09-09T05:57:34;98977.20;;;13.64;73.83
57885;BME280;43703;51.060;-0.086;2022-09-09T06:00:00;98980.72;;;12.68;76.01
57885;BME280;43703;51.060;-0.086;2022-09-09T06:02:25;98984.13;;;12.09;77.83
57885;BME280;43703;51.060;-0.086;2022-09-09T06:04:51;98985.95;;;12.07;78.92
57885;BME280;43703;51.060;-0.086;2022-09-09T06:07:17;98990.01;;;12.99;77.81
57885;BME280;43703;51.060;-0.086;2022-09-09T06:09:43;98992.68;;;13.26;76.39
57885;BME280;43703;51.060;-0.086;2022-09-09T06:12:08;98992.89;;;13.13;75.32
57885;BME280;43703;51.060;-0.086;2022-09-09T06:14:34;98989.48;;;12.79;76.74
57885;BME280;43703;51.060;-0.086;2022-09-09T06:17:00;98988.99;;;12.93;75.76
57885;BME280;43703;51.060;-0.086;2022-09-09T06:19:28;98991.71;;;12.31;77.85
57885;BME280;43703;51.060;-0.086;2022-09-09T06:21:52;98991.30;;;12.29;78.68
57885;BME280;43703;51.060;-0.086;2022-09-09T06:24:17;98997.05;;;13.60;76.49
57885;BME280;43703;51.060;-0.086;2022-09-09T06:26:43;98998.41;;;13.21;76.04
57885;BME280;43703;51.060;-0.086;2022-09-09T06:29:09;98999.90;;;14.07;73.09
57885;BME280;43703;51.060;-0.086;2022-09-09T06:31:36;99008.20;;;13.51;74.50
57885;BME280;43703;51.060;-0.086;2022-09-09T06:34:02;99006.82;;;13.71;74.85
57885;BME280;43703;51.060;-0.086;2022-09-09T06:36:27;99011.01;;;14.24;72.31
57885;BME280;43703;51.060;-0.086;2022-09-09T06:38:51;99012.63;;;14.16;72.72
57885;BME280;43703;51.060;-0.086;2022-09-09T06:41:19;99016.67;;;14.25;73.80
57885;BME280;43703;51.060;-0.086;2022-09-09T06:43:43;99020.00;;;13.76;74.63
57885;BME280;43703;51.060;-0.086;2022-09-09T06:46:11;99017.66;;;14.33;73.04
57885;BME280;43703;51.060;-0.086;2022-09-09T06:48:35;99023.27;;;14.22;73.52
57885;BME280;43703;51.060;-0.086;2022-09-09T06:51:02;99022.89;;;14.98;72.71
57885;BME280;43703;51.060;-0.086;2022-09-09T06:53:26;99027.61;;;13.91;74.46
57885;BME280;43703;51.060;-0.086;2022-09-09T06:55:52;99033.89;;;13.63;74.72
57885;BME280;43703;51.060;-0.086;2022-09-09T06:58:18;99036.85;;;13.33;75.89
57885;BME280;43703;51.060;-0.086;2022-09-09T07:00:43;99045.07;;;12.78;77.42
57885;BME280;43703;51.060;-0.086;2022-09-09T07:03:10;99046.72;;;13.63;77.49
57885;BME280;43703;51.060;-0.086;2022-09-09T07:05:35;99052.97;;;13.77;75.43
57885;BME280;43703;51.060;-0.086;2022-09-09T07:08:01;99056.60;;;13.44;75.65
57885;BME280;43703;51.060;-0.086;2022-09-09T07:10:27;99056.65;;;14.25;74.69
57885;BME280;43703;51.060;-0.086;2022-09-09T07:12:53;99061.73;;;13.88;74.95
57885;BME280;43703;51.060;-0.086;2022-09-09T07:15:19;99061.45;;;12.41;78.86
57885;BME280;43703;51.060;-0.086;2022-09-09T07:17:44;99065.67;;;13.82;76.03
57885;BME280;43703;51.060;-0.086;2022-09-09T07:20:10;99063.29;;;13.22;77.39
57885;BME280;43703;51.060;-0.086;2022-09-09T07:22:36;99068.27;;;14.07;74.95
57885;BME280;43703;51.060;-0.086;2022-09-09T07:25:02;99069.46;;;14.42;73.81
57885;BME280;43703;51.060;-0.086;2022-09-09T07:27:28;99078.48;;;13.93;74.35
57885;BME280;43703;51.060;-0.086;2022-09-09T07:29:53;99082.54;;;14.08;73.88
57885;BME280;43703;51.060;-0.086;2022-09-09T07:32:19;99088.35;;;13.69;75.63
57885;BME280;43703;51.060;-0.086;2022-09-09T07:34:45;99092.95;;;13.09;76.65
57885;BME280;43703;51.060;-0.086;2022-09-09T07:37:11;99092.41;;;13.36;76.31
57885;BME280;43703;51.060;-0.086;2022-09-09T07:39:37;99095.19;;;14.03;75.19
57885;BME280;43703;51.060;-0.086;2022-09-09T07:42:03;99098.65;;;14.40;73.49
57885;BME280;43703;51.060;-0.086;2022-09-09T07:44:28;99101.41;;;13.21;76.42
57885;BME280;43703;51.060;-0.086;2022-09-09T07:46:54;99104.25;;;12.46;78.70
57885;BME280;43703;51.060;-0.086;2022-09-09T07:49:20;99105.74;;;13.65;75.36
57885;BME280;43703;51.060;-0.086;2022-09-09T07:51:47;99106.21;;;13.96;75.18
57885;BME280;43703;51.060;-0.086;2022-09-09T07:54:14;99108.75;;;13.65;75.77
57885;BME280;43703;51.060;-0.086;2022-09-09T07:56:38;99112.13;;;13.00;76.48
57885;BME280;43703;51.060;-0.086;2022-09-09T07:59:04;99107.76;;;13.83;75.60
57885;BME280;43703;51.060;-0.086;2022-09-09T08:01:32;99114.66;;;12.74;77.77
57885;BME280;43703;51.060;-0.086;2022-09-09T08:03:57;99119.88;;;14.25;74.60
57885;BME280;43703;51.060;-0.086;2022-09-09T08:06:22;99122.14;;;13.95;73.67
57885;BME280;43703;51.060;-0.086;2022-09-09T08:08:50;99127.65;;;13.66;75.35
57885;BME280;43703;51.060;-0.086;2022-09-09T08:11:15;99131.02;;;13.11;77.05
57885;BME280;43703;51.060;-0.086;2022-09-09T08:13:39;99136.88;;;13.31;76.74
57885;BME280;43703;51.060;-0.086;2022-09-09T08:16:06;99134.61;;;14.22;75.51
57885;BME280;43703;51.060;-0.086;2022-09-09T08:18:30;99139.03;;;14.02;75.14
57885;BME280;43703;51.060;-0.086;2022-09-09T08:20:56;99143.40;;;13.86;73.91
57885;BME280;43703;51.060;-0.086;2022-09-09T08:23:22;99142.86;;;14.56;74.11
57885;BME280;43703;51.060;-0.086;2022-09-09T08:25:47;99148.83;;;14.19;74.15
57885;BME280;43703;51.060;-0.086;2022-09-09T08:28:13;99152.04;;;15.21;72.57
57885;BME280;43703;51.060;-0.086;2022-09-09T08:30:39;99152.99;;;15.33;71.63
57885;BME280;43703;51.060;-0.086;2022-09-09T08:33:05;99157.03;;;14.63;71.65
57885;BME280;43703;51.060;-0.086;2022-09-09T08:35:31;99165.01;;;14.24;72.74
57885;BME280;43703;51.060;-0.086;2022-09-09T08:37:56;99165.66;;;14.25;73.93
57885;BME280;43703;51.060;-0.086;2022-09-09T08:40:26;99168.83;;;14.43;72.51
57885;BME280;43703;51.060;-0.086;2022-09-09T08:42:49;99168.68;;;14.74;71.89
57885;BME280;43703;51.060;-0.086;2022-09-09T08:45:24;99179.72;;;15.02;71.43
57885;BME280;43703;51.060;-0.086;2022-09-09T08:47:46;99183.81;;;13.79;72.19
57885;BME280;43703;51.060;-0.086;2022-09-09T08:50:17;99188.29;;;12.85;76.90
57885;BME280;43703;51.060;-0.086;2022-09-09T08:52:38;99192.43;;;13.03;76.35
57885;BME280;43703;51.060;-0.086;2022-09-09T08:55:05;99194.25;;;13.93;74.02
57885;BME280;43703;51.060;-0.086;2022-09-09T08:57:26;99195.42;;;15.36;71.22
57885;BME280;43703;51.060;-0.086;2022-09-09T08:59:50;99199.82;;;14.64;70.45
57885;BME280;43703;51.060;-0.086;2022-09-09T09:02:18;99201.34;;;14.77;71.50
57885;BME280;43703;51.060;-0.086;2022-09-09T09:04:48;99205.10;;;15.32;69.82
57885;BME280;43703;51.060;-0.086;2022-09-09T09:07:16;99211.39;;;14.61;70.38
57885;BME280;43703;51.060;-0.086;2022-09-09T09:09:38;99216.82;;;14.14;72.78
57885;BME280;43703;51.060;-0.086;2022-09-09T09:11:59;99217.43;;;14.97;70.74
57885;BME280;43703;51.060;-0.086;2022-09-09T09:14:25;99225.55;;;14.49;71.66
57885;BME280;43703;51.060;-0.086;2022-09-09T09:16:54;99226.83;;;13.56;75.34
57885;BME280;43703;51.060;-0.086;2022-09-09T09:19:16;99231.86;;;14.54;73.94
57885;BME280;43703;51.060;-0.086;2022-09-09T09:21:43;99232.87;;;14.72;73.68
57885;BME280;43703;51.060;-0.086;2022-09-09T09:24:14;99231.85;;;15.12;71.64
57885;BME280;43703;51.060;-0.086;2022-09-09T09:26:34;99232.24;;;14.97;70.75
57885;BME280;43703;51.060;-0.086;2022-09-09T09:28:59;99236.75;;;15.93;69.35
57885;BME280;43703;51.060;-0.086;2022-09-09T09:31:24;99241.53;;;14.81;71.08
57885;BME280;43703;51.060;-0.086;2022-09-09T09:33:51;99242.36;;;15.83;70.79
57885;BME280;43703;51.060;-0.086;2022-09-09T09:36:16;99243.57;;;14.97;70.47
57885;BME280;43703;51.060;-0.086;2022-09-09T09:41:08;99251.04;;;13.92;72.10
57885;BME280;43703;51.060;-0.086;2022-09-09T09:43:34;99252.03;;;14.63;70.87
57885;BME280;43703;51.060;-0.086;2022-09-09T09:45:58;99256.55;;;15.23;71.04
57885;BME280;43703;51.060;-0.086;2022-09-09T09:48:25;99256.67;;;15.39;70.32
57885;BME280;43703;51.060;-0.086;2022-09-09T09:50:56;99257.69;;;15.74;70.27
57885;BME280;43703;51.060;-0.086;2022-09-09T09:53:22;99261.79;;;15.16;70.82
57885;BME280;43703;51.060;-0.086;2022-09-09T09:55:47;99265.03;;;14.32;72.82
57885;BME280;43703;51.060;-0.086;2022-09-09T10:00:33;99264.43;;;16.32;70.28
57885;BME280;43703;51.060;-0.086;2022-09-09T10:03:00;99269.72;;;15.49;70.69
57885;BME280;43703;51.060;-0.086;2022-09-09T10:05:25;99273.55;;;16.53;69.45
57885;BME280;43703;51.060;-0.086;2022-09-09T10:10:20;99278.74;;;14.73;70.11
57885;BME280;43703;51.060;-0.086;2022-09-09T10:12:49;99277.32;;;15.18;69.85
57885;BME280;43703;51.060;-0.086;2022-09-09T10:15:19;99278.86;;;14.99;70.93
57885;BME280;43703;51.060;-0.086;2022-09-09T10:17:39;99279.71;;;14.56;72.50
57885;BME280;43703;51.060;-0.086;2022-09-09T10:22:26;99282.25;;;15.87;70.21
57885;BME280;43703;51.060;-0.086;2022-09-09T10:24:59;99284.29;;;15.71;69.96
57885;BME280;43703;51.060;-0.086;2022-09-09T10:27:20;99288.58;;;14.31;73.25
57885;BME280;43703;51.060;-0.086;2022-09-09T10:29:53;99290.15;;;13.31;76.18
57885;BME280;43703;51.060;-0.086;2022-09-09T10:34:47;99295.95;;;15.00;71.34
57885;BME280;43703;51.060;-0.086;2022-09-09T10:36:58;99297.85;;;14.38;73.52
57885;BME280;43703;51.060;-0.086;2022-09-09T10:39:33;99300.02;;;14.00;73.75
57885;BME280;43703;51.060;-0.086;2022-09-09T10:41:57;99303.21;;;14.93;71.24
57885;BME280;43703;51.060;-0.086;2022-09-09T10:44:23;99303.03;;;14.81;71.08
57885;BME280;43703;51.060;-0.086;2022-09-09T10:46:51;99304.76;;;15.31;69.89
57885;BME280;43703;51.060;-0.086;2022-09-09T10:49:14;99301.32;;;15.57;70.16
57885;BME280;43703;51.060;-0.086;2022-09-09T10:51:40;99301.87;;;15.11;70.62
57885;BME280;43703;51.060;-0.086;2022-09-09T10:54:09;99309.03;;;14.76;70.82
57885;BME280;43703;51.060;-0.086;2022-09-09T10:56:23;99310.16;;;15.12;71.26
57885;BME280;43703;51.060;-0.086;2022-09-09T10:58:50;99308.07;;;15.92;69.98
57885;BME280;43703;51.060;-0.086;2022-09-09T11:01:18;99304.71;;;15.51;71.07
57885;BME280;43703;51.060;-0.086;2022-09-09T11:03:40;99309.56;;;15.11;71.20
57885;BME280;43703;51.060;-0.086;2022-09-09T11:06:09;99307.76;;;15.41;72.80
57885;BME280;43703;51.060;-0.086;2022-09-09T11:08:34;99311.13;;;15.39;70.98
57885;BME280;43703;51.060;-0.086;2022-09-09T11:11:01;99314.39;;;14.95;70.90
57885;BME280;43703;51.060;-0.086;2022-09-09T11:13:26;99311.77;;;15.57;71.05
57885;BME280;43703;51.060;-0.086;2022-09-09T11:15:51;99317.30;;;15.15;70.04
57885;BME280;43703;51.060;-0.086;2022-09-09T11:18:19;99320.11;;;16.24;70.86
57885;BME280;43703;51.060;-0.086;2022-09-09T11:20:41;99317.95;;;16.33;69.42
57885;BME280;43703;51.060;-0.086;2022-09-09T11:23:11;99317.35;;;15.46;70.08
57885;BME280;43703;51.060;-0.086;2022-09-09T11:25:34;99320.29;;;16.32;68.48
57885;BME280;43703;51.060;-0.086;2022-09-09T11:28:09;99319.02;;;16.11;67.52
57885;BME280;43703;51.060;-0.086;2022-09-09T11:30:29;99323.28;;;16.08;68.23
57885;BME280;43703;51.060;-0.086;2022-09-09T11:33:02;99319.22;;;15.95;66.96
57885;BME280;43703;51.060;-0.086;2022-09-09T11:35:29;99317.52;;;16.74;65.72
57885;BME280;43703;51.060;-0.086;2022-09-09T11:37:55;99323.62;;;16.41;69.24
57885;BME280;43703;51.060;-0.086;2022-09-09T11:40:19;99319.52;;;15.72;65.52
57885;BME280;43703;51.060;-0.086;2022-09-09T11:42:32;99321.03;;;16.67;64.97
57885;BME280;43703;51.060;-0.086;2022-09-09T11:47:26;99320.45;;;16.76;63.08
57885;BME280;43703;51.060;-0.086;2022-09-09T11:49:50;99319.21;;;16.68;65.54
57885;BME280;43703;51.060;-0.086;2022-09-09T11:52:22;99323.40;;;16.22;64.48
57885;BME280;43703;51.060;-0.086;2022-09-09T11:54:48;99324.86;;;16.82;65.41
57885;BME280;43703;51.060;-0.086;2022-09-09T11:57:16;99322.85;;;17.96;64.95
57885;BME280;43703;51.060;-0.086;2022-09-09T11:59:33;99322.98;;;17.64;62.30
57885;BME280;43703;51.060;-0.086;2022-09-09T12:02:00;99320.80;;;17.84;59.93
57885;BME280;43703;51.060;-0.086;2022-09-09T12:04:31;99318.35;;;17.11;60.59
57885;BME280;43703;51.060;-0.086;2022-09-09T12:06:52;99322.70;;;15.97;63.82
57885;BME280;43703;51.060;-0.086;2022-09-09T12:09:21;99324.65;;;16.43;62.31
57885;BME280;43703;51.060;-0.086;2022-09-09T12:11:42;99325.93;;;17.45;63.64
57885;BME280;43703;51.060;-0.086;2022-09-09T12:16:35;99326.05;;;17.07;63.68
57885;BME280;43703;51.060;-0.086;2022-09-09T12:19:06;99327.17;;;17.07;60.67
57885;BME280;43703;51.060;-0.086;2022-09-09T12:21:32;99329.70;;;17.30;62.37
57885;BME280;43703;51.060;-0.086;2022-09-09T12:23:54;99327.66;;;16.99;62.78
57885;BME280;43703;51.060;-0.086;2022-09-09T12:26:27;99331.50;;;17.50;63.11
57885;BME280;43703;51.060;-0.086;2022-09-09T12:28:52;99329.86;;;18.04;63.07
57885;BME280;43703;51.060;-0.086;2022-09-09T12:31:14;99330.12;;;17.48;63.67
57885;BME280;43703;51.060;-0.086;2022-09-09T12:33:36;99331.53;;;17.99;62.50
57885;BME280;43703;51.060;-0.086;2022-09-09T12:36:02;99332.90;;;17.72;63.00
57885;BME280;43703;51.060;-0.086;2022-09-09T12:38:31;99333.44;;;17.28;61.14
57885;BME280;43703;51.060;-0.086;2022-09-09T12:40:55;99337.54;;;17.19;63.11
57885;BME280;43703;51.060;-0.086;2022-09-09T12:43:20;99338.03;;;16.74;63.67
57885;BME280;43703;51.060;-0.086;2022-09-09T12:45:44;99342.54;;;17.83;63.41
57885;BME280;43703;51.060;-0.086;2022-09-09T12:48:10;99341.09;;;17.38;63.63
57885;BME280;43703;51.060;-0.086;2022-09-09T12:50:37;99340.99;;;17.27;58.99
57885;BME280;43703;51.060;-0.086;2022-09-09T12:53:03;99337.95;;;16.55;61.14
57885;BME280;43703;51.060;-0.086;2022-09-09T12:55:29;99341.25;;;17.52;60.45
57885;BME280;43703;51.060;-0.086;2022-09-09T12:57:53;99343.23;;;15.29;61.70
57885;BME280;43703;51.060;-0.086;2022-09-09T13:00:25;99342.17;;;15.92;63.15
57885;BME280;43703;51.060;-0.086;2022-09-09T13:02:47;99344.89;;;15.10;63.38
57885;BME280;43703;51.060;-0.086;2022-09-09T13:05:17;99347.54;;;14.85;63.44
57885;BME280;43703;51.060;-0.086;2022-09-09T13:07:36;99343.74;;;14.66;64.33
57885;BME280;43703;51.060;-0.086;2022-09-09T13:10:02;99343.96;;;15.69;63.57
57885;BME280;43703;51.060;-0.086;2022-09-09T13:12:28;99349.99;;;16.45;63.24
57885;BME280;43703;51.060;-0.086;2022-09-09T13:14:55;99352.77;;;15.84;64.46